Weather at Utopia Station Airport

Public forecast

Using degrees Celsius for public forecast. Weather courtesy of forecast.io.

Closest aviation weather report (METAR) to Utopia Station Airport

Closest report is Alice Springs Airport, 101.6 nm (188.2 km) SSW. Retrieved 2021/06/25 03:30 UTC (21 minutes ago):

YBAS 250330Z AUTO 18011KT 9999 // BKN040 14/04 Q1023 RF000/0000

Closest aviation forecast (TAF) to Utopia Station Airport

Closest forecast is Alice Springs Airport, 101.6 nm (188.2 km) SSW. Retrieved 2021-06-25 00:00 UTC (4 hours ago):

TAF YBAS 242303Z 2500/2600 16010KT 9999 FEW045 FM250830 16006KT 9999 FEW050 FM251500 27005KT 9999 SCT040